createdAt,value
2019-01-06T00:00:38.436Z,6.93
2019-01-06T00:03:38.268Z,7.37
2019-01-06T00:06:31.975Z,6.73
2019-01-06T00:09:21.939Z,7.30
2019-01-06T00:12:05.014Z,7.13
2019-01-06T00:15:01.886Z,7.67
2019-01-06T00:17:51.489Z,7.33
2019-01-06T00:20:41.037Z,7.43
2019-01-06T00:23:31.765Z,8.37
2019-01-06T00:26:26.846Z,8.37
2019-01-06T00:29:36.302Z,8.93
2019-01-06T00:32:25.935Z,8.17
2019-01-06T00:35:05.894Z,8.17
2019-01-06T00:37:56.658Z,8.70
2019-01-06T00:40:56.763Z,8.33
2019-01-06T00:43:46.519Z,7.80
2019-01-06T00:46:35.884Z,8.17
2019-01-06T00:49:29.841Z,8.57
2019-01-06T00:52:19.519Z,7.73
2019-01-06T00:55:28.859Z,8.57
2019-01-06T00:58:18.639Z,8.67
2019-01-06T01:01:08.977Z,8.13
2019-01-06T01:03:58.642Z,7.83
2019-01-06T01:06:52.164Z,7.60
2019-01-06T01:09:51.490Z,8.80
2019-01-06T01:12:54.417Z,7.20
2019-01-06T01:15:45.150Z,7.20
2019-01-06T01:18:39.074Z,7.80
2019-01-06T01:21:28.908Z,7.23
2019-01-06T01:24:34.970Z,6.90
2019-01-06T01:27:25.726Z,6.90
2019-01-06T01:30:15.143Z,6.63
2019-01-06T01:33:04.740Z,7.33
2019-01-06T01:36:01.346Z,6.87
2019-01-06T01:39:04.488Z,6.67
2019-01-06T01:42:10.567Z,7.13
2019-01-06T01:45:16.707Z,6.53
2019-01-06T01:47:59.776Z,6.67
2019-01-06T01:50:49.978Z,5.83
2019-01-06T01:53:43.709Z,6.00
2019-01-06T01:56:32.381Z,5.67
2019-01-06T01:59:22.021Z,6.90
2019-01-06T02:02:12.747Z,6.73
2019-01-06T02:05:02.058Z,6.07
2019-01-06T02:07:51.685Z,5.87
2019-01-06T02:10:45.080Z,6.60
2019-01-06T02:13:41.887Z,6.93
2019-01-06T02:16:51.072Z,6.00
2019-01-06T02:19:35.929Z,6.40
2019-01-06T02:22:26.639Z,5.73
2019-01-06T02:25:18.365Z,6.60
2019-01-06T02:28:08.197Z,6.10
2019-01-06T02:30:59.003Z,5.87
2019-01-06T02:33:49.811Z,6.17
2019-01-06T02:36:46.769Z,6.23
2019-01-06T02:39:46.673Z,6.10
2019-01-06T02:42:52.988Z,5.60
2019-01-06T02:45:49.780Z,6.30
2019-01-06T02:48:52.832Z,5.50
2019-01-06T02:52:01.940Z,6.03
2019-01-06T02:54:51.560Z,5.63
2019-01-06T02:57:48.456Z,5.43
2019-01-06T03:00:38.116Z,5.33
2019-01-06T03:03:25.633Z,5.27
2019-01-06T03:06:27.646Z,6.47
2019-01-06T03:09:18.358Z,4.93
2019-01-06T03:12:09.385Z,5.40
2019-01-06T03:14:59.155Z,4.97
2019-01-06T03:17:58.167Z,5.50
2019-01-06T03:21:01.006Z,5.27
2019-01-06T03:24:01.105Z,5.10
2019-01-06T03:26:54.617Z,5.40
2019-01-06T03:29:44.192Z,5.20
2019-01-06T03:32:44.092Z,5.07
2019-01-06T03:35:41.263Z,6.10
2019-01-06T03:38:31.430Z,4.87
2019-01-06T03:41:34.104Z,5.60
2019-01-06T03:44:36.418Z,6.50
2019-01-06T03:47:25.278Z,6.10
2019-01-06T03:50:13.420Z,5.60
2019-01-06T03:53:03.116Z,5.27
2019-01-06T03:55:53.917Z,6.10
2019-01-06T03:58:45.121Z,6.43
2019-01-06T04:01:32.755Z,6.20
2019-01-06T04:04:27.752Z,5.70
2019-01-06T04:07:17.325Z,5.53
2019-01-06T04:10:12.794Z,6.67
2019-01-06T04:13:07.744Z,6.03
2019-01-06T04:16:08.701Z,5.93
2019-01-06T04:18:58.239Z,7.03
2019-01-06T04:21:43.333Z,6.13
2019-01-06T04:24:33.017Z,6.10
2019-01-06T04:27:22.765Z,6.80
2019-01-06T04:30:12.348Z,6.30
2019-01-06T04:33:06.159Z,6.83
2019-01-06T04:36:12.281Z,7.10
2019-01-06T04:39:06.769Z,6.87
2019-01-06T04:41:57.502Z,6.80
2019-01-06T04:44:51.312Z,6.57
2019-01-06T04:47:41.254Z,7.10
2019-01-06T04:50:30.882Z,6.17
2019-01-06T04:53:31.794Z,7.03
2019-01-06T04:56:21.519Z,7.67
2019-01-06T04:59:18.406Z,6.90
2019-01-06T05:02:04.009Z,6.87
2019-01-06T05:04:54.735Z,6.87
2019-01-06T05:07:46.367Z,7.40
2019-01-06T05:10:45.678Z,6.70
2019-01-06T05:13:35.326Z,8.20
2019-01-06T05:16:36.358Z,7.13
2019-01-06T05:19:33.298Z,7.23
2019-01-06T05:22:23.006Z,6.40
2019-01-06T05:25:12.811Z,7.57
2019-01-06T05:27:56.698Z,7.60
2019-01-06T05:30:50.427Z,7.27
2019-01-06T05:33:41.165Z,7.83
2019-01-06T05:36:30.912Z,7.90
2019-01-06T05:39:29.242Z,6.63
2019-01-06T05:42:26.201Z,7.60
2019-01-06T05:45:23.183Z,8.63
2019-01-06T05:48:12.793Z,8.10
2019-01-06T05:51:21.970Z,7.97
2019-01-06T05:54:15.865Z,7.20
2019-01-06T05:57:09.641Z,7.03
2019-01-06T06:00:00.461Z,7.80
2019-01-06T06:02:43.148Z,7.83
2019-01-06T06:05:37.077Z,8.33
2019-01-06T06:08:26.759Z,8.37
2019-01-06T06:11:28.967Z,7.97
2019-01-06T06:14:33.195Z,7.10
2019-01-06T06:17:22.853Z,8.03
2019-01-06T06:20:25.685Z,8.50
2019-01-06T06:23:28.795Z,7.93
2019-01-06T06:26:28.830Z,8.00
2019-01-06T06:29:25.413Z,7.60
2019-01-06T06:32:28.554Z,8.03
2019-01-06T06:35:25.367Z,8.03
2019-01-06T06:38:14.944Z,9.30
2019-01-06T06:41:02.640Z,9.23
2019-01-06T06:43:52.524Z,8.67
2019-01-06T06:46:46.484Z,9.00
2019-01-06T06:49:37.202Z,7.80
2019-01-06T06:52:23.588Z,8.90
2019-01-06T06:55:19.034Z,10.13
2019-01-06T06:58:38.437Z,9.30
2019-01-06T07:01:39.046Z,9.27
2019-01-06T07:04:28.605Z,10.07
2019-01-06T07:07:30.992Z,9.60
2019-01-06T07:10:20.632Z,9.10
2019-01-06T07:13:10.257Z,9.43
2019-01-06T07:16:16.361Z,9.37
2019-01-06T07:19:10.193Z,9.70
2019-01-06T07:21:59.726Z,9.97
2019-01-06T07:24:49.298Z,9.03
2019-01-06T07:27:47.936Z,9.33
2019-01-06T07:30:47.832Z,9.63
2019-01-06T07:33:38.646Z,9.77
2019-01-06T07:36:24.112Z,10.10
2019-01-06T07:39:21.017Z,9.83
2019-01-06T07:42:24.105Z,10.83
2019-01-06T07:45:20.911Z,9.67
2019-01-06T07:48:29.851Z,11.23
2019-01-06T07:51:26.666Z,13.07
2019-01-06T07:54:35.555Z,12.50
2019-01-06T07:57:38.627Z,10.33
2019-01-06T08:00:41.616Z,11.27
2019-01-06T08:03:31.499Z,11.70
2019-01-06T08:06:21.674Z,10.57
2019-01-06T08:09:12.455Z,11.10
2019-01-06T08:12:09.293Z,10.87
2019-01-06T08:14:55.242Z,10.93
2019-01-06T08:17:44.830Z,9.80
2019-01-06T08:20:35.011Z,11.37
2019-01-06T08:23:24.627Z,11.17
2019-01-06T08:26:14.340Z,11.77
2019-01-06T08:29:04.032Z,11.20
2019-01-06T08:31:54.761Z,11.67
2019-01-06T08:34:48.649Z,12.13
2019-01-06T08:37:54.803Z,11.80
2019-01-06T08:40:45.511Z,12.00
2019-01-06T08:43:36.237Z,11.87
2019-01-06T08:46:36.360Z,11.30
2019-01-06T08:49:42.488Z,12.97
2019-01-06T08:52:32.238Z,13.20
2019-01-06T08:55:32.162Z,13.40
2019-01-06T08:58:38.310Z,12.00
2019-01-06T09:01:27.876Z,12.70
2019-01-06T09:04:24.154Z,12.03
2019-01-06T09:07:11.998Z,12.93
2019-01-06T09:10:03.990Z,13.40
2019-01-06T09:12:53.618Z,13.13
2019-01-06T09:15:47.381Z,15.03
2019-01-06T09:18:38.178Z,15.10
2019-01-06T09:21:27.767Z,14.60
2019-01-06T09:24:21.421Z,13.77
2019-01-06T09:27:05.243Z,14.70
2019-01-06T09:30:11.359Z,14.03
2019-01-06T09:33:00.882Z,14.90
2019-01-06T09:35:50.438Z,14.33
2019-01-06T09:38:40.135Z,14.83
2019-01-06T09:41:30.835Z,14.37
2019-01-06T09:44:28.241Z,15.33
2019-01-06T09:47:18.981Z,15.27
2019-01-06T09:50:12.741Z,15.67
2019-01-06T09:53:09.624Z,16.40
2019-01-06T09:55:59.393Z,15.50
2019-01-06T09:58:59.459Z,15.37
2019-01-06T10:01:50.194Z,14.50
2019-01-06T10:04:53.533Z,15.47
2019-01-06T10:07:43.281Z,15.23
2019-01-06T10:10:35.562Z,15.60
2019-01-06T10:13:21.560Z,15.17
2019-01-06T10:16:19.312Z,16.23
2019-01-06T10:19:13.109Z,17.00
2019-01-06T10:22:13.202Z,18.37
2019-01-06T10:25:02.606Z,16.30
2019-01-06T10:27:52.360Z,15.83
2019-01-06T10:30:52.304Z,17.43
2019-01-06T10:33:52.159Z,17.07
2019-01-06T10:36:49.002Z,17.87
2019-01-06T10:39:34.920Z,15.07
2019-01-06T10:42:34.774Z,14.97
2019-01-06T10:45:24.359Z,14.87
2019-01-06T10:48:24.476Z,14.47
2019-01-06T10:51:21.426Z,14.63
2019-01-06T10:54:12.164Z,14.90
2019-01-06T10:57:15.218Z,14.60
2019-01-06T11:00:05.082Z,15.87
2019-01-06T11:02:59.071Z,13.73
2019-01-06T11:05:48.951Z,14.27
2019-01-06T11:08:30.527Z,15.40
2019-01-06T11:11:20.103Z,14.17
2019-01-06T11:14:16.978Z,13.43
2019-01-06T11:17:07.711Z,14.17
2019-01-06T11:19:57.323Z,13.60
2019-01-06T11:23:03.380Z,14.10
2019-01-06T11:25:59.949Z,14.80
2019-01-06T11:29:03.011Z,14.20
2019-01-06T11:31:53.726Z,13.43
2019-01-06T11:34:47.660Z,14.10
2019-01-06T11:37:37.347Z,14.20
2019-01-06T11:40:40.355Z,14.07
2019-01-06T11:43:40.452Z,13.53
2019-01-06T11:46:31.180Z,13.57
2019-01-06T11:49:20.817Z,13.93
2019-01-06T11:52:06.891Z,12.37
2019-01-06T11:54:57.619Z,13.10
2019-01-06T11:57:51.399Z,12.97
2019-01-06T12:00:41.036Z,11.93
2019-01-06T12:03:31.024Z,11.63
2019-01-06T12:06:20.728Z,12.30
2019-01-06T12:09:04.763Z,12.27
2019-01-06T12:12:07.800Z,11.43
2019-01-06T12:15:13.932Z,12.40
2019-01-06T12:18:23.021Z,12.23
2019-01-06T12:21:19.783Z,11.20
2019-01-06T12:24:22.843Z,11.80
2019-01-06T12:27:19.674Z,11.20
2019-01-06T12:30:09.407Z,11.63
2019-01-06T12:33:12.491Z,10.57
2019-01-06T12:36:02.103Z,11.87
2019-01-06T12:39:05.203Z,10.40
2019-01-06T12:41:49.105Z,10.60
2019-01-06T12:44:52.294Z,12.27
2019-01-06T12:47:54.476Z,11.03
2019-01-06T12:50:40.365Z,10.33
2019-01-06T12:53:37.731Z,10.53
2019-01-06T12:56:39.195Z,9.23
2019-01-06T12:59:35.973Z,10.43
2019-01-06T13:02:26.960Z,10.50
2019-01-06T13:05:36.097Z,9.13
2019-01-06T13:08:24.902Z,8.67
2019-01-06T13:11:17.605Z,8.27
2019-01-06T13:14:11.313Z,8.87
2019-01-06T13:16:59.426Z,8.40
2019-01-06T13:19:53.007Z,8.60
2019-01-06T13:22:42.587Z,8.10
2019-01-06T13:25:33.302Z,8.80
2019-01-06T13:28:28.575Z,7.50
2019-01-06T13:31:28.705Z,8.10
2019-01-06T13:34:18.831Z,10.03
2019-01-06T13:37:08.588Z,9.47
2019-01-06T13:40:05.625Z,9.67
2019-01-06T13:42:59.401Z,9.87
2019-01-06T13:45:50.102Z,8.83
2019-01-06T13:48:43.875Z,9.30
2019-01-06T13:51:33.516Z,7.73
2019-01-06T13:54:29.917Z,8.57
2019-01-06T13:57:14.290Z,8.10
2019-01-06T14:00:08.081Z,8.83
2019-01-06T14:03:01.886Z,8.73
2019-01-06T14:06:07.920Z,8.57
2019-01-06T14:08:58.658Z,8.97
2019-01-06T14:11:58.515Z,7.93
2019-01-06T14:15:05.768Z,7.80
2019-01-06T14:17:55.412Z,8.20
2019-01-06T14:21:01.474Z,8.33
2019-01-06T14:23:52.208Z,9.13
2019-01-06T14:26:41.844Z,8.83
2019-01-06T14:29:31.488Z,8.90
2019-01-06T14:32:21.042Z,7.87
2019-01-06T14:35:10.428Z,8.90
2019-01-06T14:38:00.115Z,10.00
2019-01-06T14:40:50.567Z,9.27
2019-01-06T14:43:44.774Z,10.60
2019-01-06T14:46:34.347Z,12.03
2019-01-06T14:49:30.477Z,10.17
2019-01-06T14:52:31.799Z,8.97
2019-01-06T14:55:22.601Z,7.53
2019-01-06T14:58:19.417Z,8.90
2019-01-06T15:01:10.167Z,7.60
2019-01-06T15:03:55.133Z,7.03
2019-01-06T15:06:54.949Z,6.87
2019-01-06T15:09:45.698Z,6.77
2019-01-06T15:12:35.275Z,6.07
2019-01-06T15:15:24.916Z,9.07
2019-01-06T15:18:18.660Z,9.47
2019-01-06T15:21:09.207Z,7.97
2019-01-06T15:24:08.705Z,7.47
2019-01-06T15:27:11.806Z,8.67
2019-01-06T15:30:01.403Z,8.50
2019-01-06T15:33:02.241Z,8.13
2019-01-06T15:36:02.264Z,9.90
2019-01-06T15:38:58.786Z,17.07
2019-01-06T15:41:58.790Z,16.83
2019-01-06T15:44:52.495Z,21.67
2019-01-06T15:47:52.445Z,20.50
2019-01-06T15:50:42.174Z,23.47
2019-01-06T15:53:32.032Z,19.27
2019-01-06T15:56:35.148Z,15.80
2019-01-06T15:59:28.639Z,12.33
2019-01-06T16:02:28.793Z,14.30
2019-01-06T16:05:22.346Z,11.10
2019-01-06T16:08:31.510Z,11.03
2019-01-06T16:11:17.603Z,11.47
2019-01-06T16:14:07.350Z,11.20
2019-01-06T16:17:07.359Z,9.60
2019-01-06T16:19:52.086Z,10.57
2019-01-06T16:22:41.864Z,9.73
2019-01-06T16:25:29.320Z,9.30
2019-01-06T16:28:20.519Z,9.83
2019-01-06T16:31:20.405Z,7.97
2019-01-06T16:34:00.493Z,9.80
2019-01-06T16:36:49.970Z,9.50
2019-01-06T16:39:59.250Z,9.37
2019-01-06T16:42:45.316Z,10.03
2019-01-06T16:45:48.662Z,8.47
2019-01-06T16:48:39.382Z,8.80
2019-01-06T16:51:26.405Z,7.80
2019-01-06T16:54:12.284Z,8.40
2019-01-06T16:57:02.911Z,9.47
2019-01-06T16:59:52.546Z,8.37
2019-01-06T17:02:42.124Z,7.77
2019-01-06T17:05:33.684Z,8.03
2019-01-06T17:08:31.829Z,8.33
2019-01-06T17:11:21.502Z,7.90
2019-01-06T17:14:18.368Z,7.80
2019-01-06T17:17:08.177Z,8.40
2019-01-06T17:19:58.476Z,8.10
2019-01-06T17:22:49.063Z,7.80
2019-01-06T17:25:42.814Z,7.80
2019-01-06T17:28:32.368Z,8.80
2019-01-06T17:31:38.445Z,9.00
2019-01-06T17:34:47.166Z,7.40
2019-01-06T17:37:40.524Z,7.27
2019-01-06T17:40:37.288Z,7.43
2019-01-06T17:43:42.036Z,7.47
2019-01-06T17:46:48.136Z,7.83
2019-01-06T17:49:37.736Z,6.93
2019-01-06T17:52:36.882Z,7.80
2019-01-06T17:55:26.973Z,7.77
2019-01-06T17:58:23.959Z,9.23
2019-01-06T18:01:10.937Z,9.40
2019-01-06T18:04:04.915Z,9.30
2019-01-06T18:07:05.630Z,9.80
2019-01-06T18:10:04.842Z,10.87
2019-01-06T18:12:58.710Z,10.67
2019-01-06T18:15:49.415Z,10.60
2019-01-06T18:18:39.180Z,10.90
2019-01-06T18:21:28.854Z,13.77
2019-01-06T18:24:22.890Z,12.97
2019-01-06T18:27:28.961Z,13.57
2019-01-06T18:30:18.665Z,12.67
2019-01-06T18:33:24.882Z,14.23
2019-01-06T18:36:14.540Z,14.20
2019-01-06T18:39:03.986Z,14.30
2019-01-06T18:41:53.755Z,13.20
2019-01-06T18:44:49.981Z,13.17
2019-01-06T18:47:44.354Z,13.80
2019-01-06T18:50:47.449Z,13.73
2019-01-06T18:53:50.828Z,14.97
2019-01-06T18:56:44.600Z,13.60
2019-01-06T18:59:39.087Z,14.30
2019-01-06T19:02:29.829Z,13.80
2019-01-06T19:05:29.460Z,15.20
2019-01-06T19:08:35.575Z,14.53
2019-01-06T19:11:29.379Z,15.77
2019-01-06T19:14:19.091Z,15.10
2019-01-06T19:17:08.804Z,14.30
2019-01-06T19:19:58.751Z,13.77
2019-01-06T19:23:02.248Z,15.60
2019-01-06T19:25:51.852Z,16.13
2019-01-06T19:28:41.538Z,16.37
2019-01-06T19:31:31.290Z,15.97
2019-01-06T19:34:16.904Z,19.33
2019-01-06T19:37:15.714Z,18.83
2019-01-06T19:40:06.548Z,18.50
2019-01-06T19:42:52.696Z,18.23
2019-01-06T19:45:43.552Z,17.60
2019-01-06T19:48:49.719Z,17.00
2019-01-06T19:51:39.835Z,17.37
2019-01-06T19:54:42.849Z,17.43
2019-01-06T19:57:32.818Z,18.23
2019-01-06T20:00:36.656Z,18.40
2019-01-06T20:03:26.331Z,18.20
2019-01-06T20:06:12.039Z,17.97
2019-01-06T20:09:01.716Z,18.93
2019-01-06T20:11:58.798Z,20.57
2019-01-06T20:14:49.527Z,18.83
2019-01-06T20:17:38.724Z,17.83
2019-01-06T20:20:38.937Z,18.40
2019-01-06T20:23:32.817Z,19.63
2019-01-06T20:26:26.551Z,17.60
2019-01-06T20:29:17.299Z,16.50
2019-01-06T20:32:14.321Z,16.73
2019-01-06T20:35:05.068Z,17.73
2019-01-06T20:38:05.180Z,18.87
2019-01-06T20:40:57.817Z,18.37
2019-01-06T20:43:47.369Z,18.67
2019-01-06T20:46:37.123Z,18.20
2019-01-06T20:49:26.839Z,16.80
2019-01-06T20:52:16.720Z,15.30
2019-01-06T20:55:26.022Z,16.37
2019-01-06T20:58:28.931Z,14.97
2019-01-06T21:01:18.778Z,14.63
2019-01-06T21:04:09.536Z,14.73
2019-01-06T21:07:15.630Z,14.23
2019-01-06T21:10:05.308Z,14.07
2019-01-06T21:13:04.799Z,14.97
2019-01-06T21:16:00.262Z,14.97
2019-01-06T21:18:50.096Z,13.77
2019-01-06T21:21:39.923Z,14.53
2019-01-06T21:24:28.318Z,14.60
2019-01-06T21:27:19.337Z,14.77
2019-01-06T21:30:19.378Z,13.50
2019-01-06T21:33:13.170Z,13.73
2019-01-06T21:36:02.767Z,13.07
2019-01-06T21:38:54.444Z,13.37
2019-01-06T21:41:48.234Z,12.13
2019-01-06T21:44:50.519Z,12.83
2019-01-06T21:47:40.362Z,12.50
2019-01-06T21:50:25.770Z,13.40
2019-01-06T21:53:19.568Z,12.03
2019-01-06T21:56:25.699Z,12.17
2019-01-06T21:59:15.271Z,11.47
2019-01-06T22:02:21.073Z,10.47
2019-01-06T22:05:07.433Z,10.43
2019-01-06T22:07:56.993Z,9.50
2019-01-06T22:10:47.738Z,10.00
2019-01-06T22:13:34.687Z,10.30
2019-01-06T22:16:37.510Z,9.20
2019-01-06T22:19:28.210Z,9.90
2019-01-06T22:22:27.604Z,10.27
2019-01-06T22:25:18.331Z,10.30
2019-01-06T22:28:08.132Z,9.07
2019-01-06T22:30:57.747Z,10.37
2019-01-06T22:33:47.590Z,9.60
2019-01-06T22:36:43.124Z,9.73
2019-01-06T22:39:36.991Z,10.23
2019-01-06T22:42:36.884Z,9.30
2019-01-06T22:45:26.270Z,8.90
2019-01-06T22:48:32.914Z,8.23
2019-01-06T22:51:31.208Z,9.63
2019-01-06T22:54:31.905Z,9.10
2019-01-06T22:57:22.753Z,9.30
2019-01-06T23:00:27.456Z,11.30
2019-01-06T23:03:16.973Z,8.67
2019-01-06T23:06:01.588Z,9.13
2019-01-06T23:08:51.290Z,10.20
2019-01-06T23:11:37.670Z,9.13
2019-01-06T23:14:26.851Z,8.77
2019-01-06T23:17:09.528Z,9.97
2019-01-06T23:20:00.276Z,10.37
2019-01-06T23:22:54.027Z,9.87
2019-01-06T23:25:44.761Z,10.00
2019-01-06T23:28:44.593Z,9.47
2019-01-06T23:31:29.217Z,9.40
2019-01-06T23:34:12.239Z,10.43
2019-01-06T23:37:02.960Z,10.43
2019-01-06T23:39:53.678Z,10.17
2019-01-06T23:42:43.315Z,9.90
2019-01-06T23:45:49.428Z,10.43
2019-01-06T23:48:49.419Z,10.13
2019-01-06T23:51:58.806Z,10.17
2019-01-06T23:54:49.553Z,10.10
2019-01-06T23:57:37.289Z,10.47
